createdAt,value
2022-11-16T00:04:17.480Z,14.23
2022-11-16T00:09:23.226Z,13.77
2022-11-16T00:14:28.576Z,14.60
2022-11-16T00:19:31.663Z,15.07
2022-11-16T00:24:34.882Z,12.33
2022-11-16T00:29:37.520Z,11.93
2022-11-16T00:34:40.297Z,12.37
2022-11-16T00:39:43.071Z,10.93
2022-11-16T00:44:48.334Z,11.13
2022-11-16T00:49:51.108Z,11.03
2022-11-16T00:54:53.761Z,10.30
2022-11-16T00:59:56.477Z,10.90
2022-11-16T01:04:59.160Z,11.17
2022-11-16T01:10:03.991Z,11.53
2022-11-16T01:15:11.775Z,11.13
2022-11-16T01:20:18.293Z,9.77
2022-11-16T01:25:21.179Z,10.43
2022-11-16T01:30:24.479Z,9.43
2022-11-16T01:35:36.725Z,10.33
2022-11-16T01:40:39.832Z,10.00
2022-11-16T01:45:43.181Z,8.23
2022-11-16T01:50:50.023Z,9.13
2022-11-16T01:55:53.444Z,6.87
2022-11-16T02:01:10.892Z,6.53
2022-11-16T02:06:39.207Z,8.40
2022-11-16T02:12:07.731Z,8.43
2022-11-16T02:17:37.670Z,8.07
2022-11-16T02:23:27.014Z,8.40
2022-11-16T02:28:51.190Z,10.03
2022-11-16T02:33:56.311Z,9.83
2022-11-16T02:39:07.760Z,11.37
2022-11-16T02:44:21.015Z,10.83
2022-11-16T02:49:26.540Z,10.53
2022-11-16T02:54:29.099Z,8.27
2022-11-16T02:59:41.850Z,9.77
2022-11-16T03:09:51.243Z,9.03
2022-11-16T03:14:59.110Z,7.30
2022-11-16T03:20:09.660Z,6.83
2022-11-16T03:25:20.256Z,7.97
2022-11-16T03:30:31.998Z,7.53
2022-11-16T03:35:43.826Z,6.80
2022-11-16T03:40:47.751Z,7.27
2022-11-16T03:45:50.930Z,6.70
2022-11-16T03:50:54.248Z,7.10
2022-11-16T03:55:57.243Z,6.30
2022-11-16T04:01:00.320Z,6.90
2022-11-16T04:06:22.824Z,5.97
2022-11-16T04:11:44.012Z,6.47
2022-11-16T04:17:05.429Z,6.80
2022-11-16T04:22:36.849Z,7.90
2022-11-16T04:27:58.437Z,7.05
2022-11-16T04:33:19.545Z,8.25
2022-11-16T04:38:22.355Z,8.77
2022-11-16T04:43:24.920Z,9.20
2022-11-16T04:48:28.602Z,9.43
2022-11-16T04:53:32.110Z,8.87
2022-11-16T04:58:43.607Z,10.32
2022-11-16T05:03:46.431Z,10.00
2022-11-16T05:08:50.965Z,8.87
2022-11-16T05:13:53.641Z,9.87
2022-11-16T05:19:15.083Z,10.10
2022-11-16T05:24:35.851Z,10.35
2022-11-16T05:29:40.328Z,10.03
2022-11-16T05:34:44.067Z,9.80
2022-11-16T05:39:50.202Z,10.93
2022-11-16T05:44:54.908Z,10.00
2022-11-16T05:49:57.549Z,10.17
2022-11-16T05:55:02.307Z,9.83
2022-11-16T06:00:09.323Z,12.13
2022-11-16T06:05:17.808Z,11.37
2022-11-16T06:10:22.308Z,10.33
2022-11-16T06:15:26.993Z,11.20
2022-11-16T06:20:29.570Z,11.13
2022-11-16T06:25:33.384Z,12.37
2022-11-16T06:30:38.355Z,12.17
2022-11-16T06:35:42.901Z,13.83
2022-11-16T06:40:50.876Z,12.60
2022-11-16T06:45:57.107Z,12.00
2022-11-16T06:51:00.472Z,11.07
2022-11-16T06:56:06.163Z,10.77
2022-11-16T07:01:14.432Z,10.03
2022-11-16T07:06:19.693Z,9.33
2022-11-16T07:11:22.584Z,9.60
2022-11-16T07:16:25.490Z,8.07
2022-11-16T07:21:32.763Z,9.70
2022-11-16T07:26:38.343Z,10.57
2022-11-16T07:31:45.486Z,9.60
2022-11-16T07:37:08.472Z,8.60
2022-11-16T07:42:11.839Z,8.30
2022-11-16T07:47:40.733Z,7.43
2022-11-16T07:52:48.722Z,6.93
2022-11-16T07:57:55.213Z,7.63
2022-11-16T08:02:57.927Z,6.65
2022-11-16T08:08:01.780Z,6.60
2022-11-16T08:13:05.903Z,6.22
2022-11-16T08:18:08.655Z,5.85
2022-11-16T08:23:11.255Z,5.70
2022-11-16T08:28:14.626Z,4.80
2022-11-16T08:33:19.658Z,5.25
2022-11-16T08:38:22.570Z,5.70
2022-11-16T08:43:25.945Z,5.63
2022-11-16T08:48:29.111Z,5.50
2022-11-16T08:53:31.847Z,6.03
2022-11-16T08:58:36.170Z,4.57
2022-11-16T09:03:39.185Z,5.50
2022-11-16T09:08:43.625Z,8.10
2022-11-16T09:13:47.885Z,7.63
2022-11-16T09:18:51.917Z,5.75
2022-11-16T09:23:56.480Z,8.07
2022-11-16T09:29:00.852Z,7.00
2022-11-16T09:34:04.535Z,5.78
2022-11-16T09:44:38.791Z,5.28
2022-11-16T09:49:47.502Z,5.75
2022-11-16T09:54:53.131Z,6.53
2022-11-16T10:00:01.175Z,6.38
2022-11-16T10:05:20.678Z,6.80
2022-11-16T10:10:39.639Z,6.45
2022-11-16T10:16:00.461Z,6.43
2022-11-16T10:21:11.650Z,5.78
2022-11-16T10:26:21.116Z,6.80
2022-11-16T10:31:57.084Z,6.10
2022-11-16T10:37:07.858Z,6.60
2022-11-16T10:42:35.069Z,5.93
2022-11-16T10:48:06.321Z,5.93
2022-11-16T10:53:14.730Z,6.13
2022-11-16T10:58:17.294Z,6.50
2022-11-16T11:03:32.806Z,5.33
2022-11-16T11:08:35.584Z,4.40
2022-11-16T11:13:38.178Z,4.73
2022-11-16T11:18:40.756Z,4.60
2022-11-16T11:23:50.893Z,4.60
2022-11-16T11:28:54.092Z,5.53
2022-11-16T11:34:14.236Z,6.45
2022-11-16T11:39:16.729Z,5.70
2022-11-16T11:44:20.520Z,4.85
2022-11-16T11:49:36.148Z,3.50
2022-11-16T11:54:46.012Z,3.70
2022-11-16T11:59:52.389Z,3.53
2022-11-16T12:04:57.699Z,4.00
2022-11-16T12:10:17.744Z,3.60
2022-11-16T12:15:26.176Z,3.83
2022-11-16T12:20:52.841Z,4.45
2022-11-16T12:25:58.092Z,4.07
2022-11-16T12:31:38.076Z,4.93
2022-11-16T12:36:59.154Z,7.67
2022-11-16T12:42:24.826Z,5.07
2022-11-16T12:47:56.479Z,4.90
2022-11-16T12:53:08.531Z,5.25
2022-11-16T12:58:48.774Z,5.22
2022-11-16T13:03:56.411Z,5.97
2022-11-16T13:09:06.916Z,5.77
2022-11-16T13:14:36.618Z,5.63
2022-11-16T13:19:42.367Z,5.87
2022-11-16T13:24:47.504Z,5.22
2022-11-16T13:30:17.938Z,4.72
2022-11-16T13:35:21.079Z,5.00
2022-11-16T13:40:40.690Z,5.10
2022-11-16T13:45:51.497Z,6.00
2022-11-16T13:50:56.323Z,6.18
2022-11-16T13:56:01.956Z,6.87
2022-11-16T14:01:10.832Z,6.87
2022-11-16T14:06:13.388Z,5.80
2022-11-16T14:11:36.830Z,6.90
2022-11-16T14:16:45.166Z,6.17
2022-11-16T14:21:59.515Z,7.43
2022-11-16T14:27:30.752Z,9.57
2022-11-16T14:32:42.566Z,13.95
2022-11-16T14:37:45.381Z,8.10
2022-11-16T14:43:16.064Z,8.13
2022-11-16T14:48:21.419Z,7.88
2022-11-16T14:53:26.443Z,10.27
2022-11-16T14:58:29.265Z,13.67
2022-11-16T15:03:38.476Z,8.17
2022-11-16T15:08:48.957Z,7.10
2022-11-16T15:13:51.682Z,7.17
2022-11-16T15:19:01.832Z,6.17
2022-11-16T15:29:27.249Z,7.67
2022-11-16T15:34:31.394Z,6.40
2022-11-16T15:39:36.142Z,7.40
2022-11-16T15:44:39.591Z,6.87
2022-11-16T15:49:43.854Z,7.97
2022-11-16T15:55:03.917Z,6.90
2022-11-16T16:00:07.028Z,6.70
2022-11-16T16:05:39.064Z,7.50
2022-11-16T16:15:44.080Z,7.27
2022-11-16T16:20:49.056Z,7.13
2022-11-16T16:25:51.627Z,8.17
2022-11-16T16:30:54.312Z,7.80
2022-11-16T16:35:57.022Z,8.23
2022-11-16T16:41:04.039Z,8.13
2022-11-16T16:46:06.924Z,8.60
2022-11-16T16:51:12.063Z,8.40
2022-11-16T16:56:16.822Z,8.67
2022-11-16T17:01:19.467Z,9.10
2022-11-16T17:06:22.355Z,9.67
2022-11-16T17:11:25.248Z,9.40
2022-11-16T17:16:27.811Z,10.23
2022-11-16T17:21:31.204Z,10.40
2022-11-16T17:26:33.893Z,10.20
2022-11-16T17:32:03.883Z,9.47
2022-11-16T17:37:06.969Z,10.73
2022-11-16T17:42:09.696Z,11.63
2022-11-16T17:47:12.464Z,9.40
2022-11-16T17:52:15.531Z,9.70
2022-11-16T17:57:24.198Z,9.67
2022-11-16T18:02:26.864Z,10.83
2022-11-16T18:07:32.791Z,8.93
2022-11-16T18:12:35.375Z,9.20
2022-11-16T18:17:37.964Z,9.87
2022-11-16T18:22:41.313Z,9.20
2022-11-16T18:27:43.919Z,9.60
2022-11-16T18:32:47.375Z,9.27
2022-11-16T18:37:50.383Z,10.40
2022-11-16T18:42:52.936Z,11.30
2022-11-16T18:47:55.513Z,10.27
2022-11-16T18:52:58.291Z,12.00
2022-11-16T18:58:01.541Z,9.07
2022-11-16T19:03:09.882Z,10.73
2022-11-16T19:08:14.773Z,9.90
2022-11-16T19:13:17.922Z,9.87
2022-11-16T19:18:27.149Z,10.70
2022-11-16T19:23:29.716Z,10.23
2022-11-16T19:28:42.837Z,11.10
2022-11-16T19:33:45.923Z,10.83
2022-11-16T19:38:49.149Z,10.87
2022-11-16T19:43:57.105Z,17.27
2022-11-16T19:49:00.781Z,11.20
2022-11-16T19:54:03.649Z,10.40
2022-11-16T19:59:06.487Z,11.03
2022-11-16T20:04:09.441Z,11.83
2022-11-16T20:09:12.277Z,12.17
2022-11-16T20:14:15.540Z,12.30
2022-11-16T20:19:19.329Z,12.67
2022-11-16T20:24:22.105Z,12.83
2022-11-16T20:29:24.717Z,13.10
2022-11-16T20:34:27.341Z,13.60
2022-11-16T20:39:29.866Z,12.53
2022-11-16T20:44:32.734Z,13.67
2022-11-16T20:49:35.463Z,12.93
2022-11-16T20:54:38.012Z,12.73
2022-11-16T20:59:40.668Z,13.17
2022-11-16T21:04:43.187Z,13.03
2022-11-16T21:10:15.066Z,13.10
2022-11-16T21:15:17.812Z,12.67
2022-11-16T21:20:27.449Z,12.10
2022-11-16T21:25:30.865Z,12.70
2022-11-16T21:30:33.440Z,12.60
2022-11-16T21:35:36.162Z,12.17
2022-11-16T21:40:41.012Z,10.80
2022-11-16T21:45:45.206Z,13.57
2022-11-16T21:50:47.853Z,13.87
2022-11-16T21:55:50.458Z,15.27
2022-11-16T22:00:57.458Z,16.05
2022-11-16T22:06:21.252Z,13.47
2022-11-16T22:11:23.802Z,14.48
2022-11-16T22:16:26.986Z,12.53
2022-11-16T22:21:29.539Z,10.88
2022-11-16T22:26:32.126Z,12.13
2022-11-16T22:31:36.174Z,11.55
2022-11-16T22:36:38.812Z,12.10
2022-11-16T22:41:41.947Z,10.90
2022-11-16T22:46:44.755Z,11.00
2022-11-16T22:51:47.444Z,10.77
2022-11-16T22:56:50.044Z,10.00
2022-11-16T23:01:52.578Z,10.65
2022-11-16T23:06:55.225Z,10.50
2022-11-16T23:12:16.510Z,10.67
2022-11-16T23:17:19.056Z,10.27
2022-11-16T23:22:40.599Z,10.10
2022-11-16T23:28:04.770Z,10.88
2022-11-16T23:33:16.277Z,10.00
2022-11-16T23:38:19.053Z,11.15
2022-11-16T23:43:40.044Z,10.65
2022-11-16T23:48:42.552Z,7.00
2022-11-16T23:53:45.621Z,9.85
2022-11-16T23:58:48.696Z,9.27
